
Distance (Route):
Temperature : -20.0°C
Humidity : 23.7%
Pressure : 0hPa| Receiver | Frames | First received | Last received |
|---|---|---|---|
| LZ4TU-5 | 91 | 2026-09-05 23:36:43 | 2026-09-06 00:54:22 |
| Receiver | Date | Latitude | Longitude | Direction | Speed | Altitude | Climb | Temperature | Humidity | Pressure | Voltage | Killtimer | Uptime | BKT | XDATA |
|---|---|---|---|---|---|---|---|---|---|---|---|---|---|---|---|
| LZ4TU-5 | 2026-09-06 00:54:22 | 43.03005 | 20.69625 | 122° | 69km/h | 7825m | -13.6m/s | -20.0°C | 23.7% | 0hPa | 0V | 00:00:00 | 00:00:00 | 00:00:00 | |
| LZ4TU-5 | 2026-09-06 00:52:07 | 43.04507 | 20.67119 | 130° | 71km/h | 9744m | -14.0m/s | -35.7°C | 25.3% | 0hPa | 0V | 00:00:00 | 00:00:00 | 00:00:00 | |
| LZ4TU-5 | 2026-09-06 00:52:03 | 43.04552 | 20.67042 | 130° | 73km/h | 9804m | -14.9m/s | -36.1°C | 27.7% | 0hPa | 0V | 00:00:00 | 00:00:00 | 00:00:00 | |
| LZ4TU-5 | 2026-09-06 00:50:06 | 43.05968 | 20.64543 | 130° | 91km/h | 11684m | -17.5m/s | -51.6°C | 25.8% | 0hPa | 0V | 00:00:00 | 00:00:00 | 00:00:00 | |
| LZ4TU-5 | 2026-09-06 00:50:01 | 43.06045 | 20.64421 | 133° | 93km/h | 11765m | -16.7m/s | -52.2°C | 25.5% | 0hPa | 0V | 00:00:00 | 00:00:00 | 00:00:00 | |
| LZ4TU-5 | 2026-09-06 00:48:07 | 43.07234 | 20.61825 | 100° | 80km/h | 14070m | -21.2m/s | -66.4°C | 3.7% | 0hPa | 0V | 00:00:00 | 00:00:00 | 00:00:00 | |
| LZ4TU-5 | 2026-09-06 00:48:02 | 43.07250 | 20.61691 | 106° | 77km/h | 14178m | -21.8m/s | -66.4°C | 2.9% | 0hPa | 0V | 00:00:00 | 00:00:00 | 00:00:00 | |
| LZ4TU-5 | 2026-09-06 00:45:55 | 43.07794 | 20.58503 | 114° | 53km/h | 17073m | -24.4m/s | -60.4°C | 0.0% | 0hPa | 0V | 00:00:00 | 00:00:00 | 00:00:00 | |
| LZ4TU-5 | 2026-09-06 00:45:51 | 43.07821 | 20.58419 | 115° | 55km/h | 17196m | -24.3m/s | -60.7°C | 0.0% | 0hPa | 0V | 00:00:00 | 00:00:00 | 00:00:00 | |
| LZ4TU-5 | 2026-09-06 00:43:55 | 43.07955 | 20.56987 | 88° | 18km/h | 20112m | -24.2m/s | -57.3°C | 0.0% | 0hPa | 0V | 00:00:00 | 00:00:00 | 00:00:00 | |
| LZ4TU-5 | 2026-09-06 00:43:50 | 43.07951 | 20.56956 | 77° | 22km/h | 20240m | -26.2m/s | -57.3°C | 0.0% | 0hPa | 0V | 00:00:00 | 00:00:00 | 00:00:00 | |
| LZ4TU-5 | 2026-09-06 00:42:06 | 43.07985 | 20.56486 | 355° | 9km/h | 22790m | -22.1m/s | -55.6°C | 0.0% | 0hPa | 0V | 00:00:00 | 00:00:00 | 00:00:00 | |
| LZ4TU-5 | 2026-09-06 00:42:01 | 43.07976 | 20.56479 | 52° | 16km/h | 22915m | -25.6m/s | -55.0°C | 0.0% | 0hPa | 0V | 00:00:00 | 00:00:00 | 00:00:00 | |
| LZ4TU-5 | 2026-09-06 00:40:03 | 43.08060 | 20.56138 | 339° | 16km/h | 25852m | -24.3m/s | -50.4°C | 0.0% | 0hPa | 0V | 00:00:00 | 00:00:00 | 00:00:00 | |
| LZ4TU-5 | 2026-09-06 00:39:58 | 43.08042 | 20.56149 | 345° | 16km/h | 25974m | -26.0m/s | -50.4°C | 0.0% | 0hPa | 0V | 00:00:00 | 00:00:00 | 00:00:00 | |
| LZ4TU-5 | 2026-09-06 00:38:19 | 43.07894 | 20.56296 | 264° | 11km/h | 28644m | -27.0m/s | -46.3°C | 0.0% | 0hPa | 0V | 00:00:00 | 00:00:00 | 00:00:00 | |
| LZ4TU-5 | 2026-09-06 00:38:13 | 43.07895 | 20.56314 | 291° | 11km/h | 28757m | -20.7m/s | -46.4°C | 0.0% | 0hPa | 0V | 00:00:00 | 00:00:00 | 00:00:00 | |
| LZ4TU-5 | 2026-09-06 00:36:06 | 43.07671 | 20.56393 | 321° | 29km/h | 30157m | 7.8m/s | -44.9°C | 0.0% | 0hPa | 0V | 00:00:00 | 00:00:00 | 00:00:00 | |
| LZ4TU-5 | 2026-09-06 00:36:01 | 43.07640 | 20.56414 | 322° | 11km/h | 30121m | 8.1m/s | -44.8°C | 0.0% | 0hPa | 0V | 00:00:00 | 00:00:00 | 00:00:00 | |
| LZ4TU-5 | 2026-09-06 00:33:28 | 43.07686 | 20.56438 | 54° | 26km/h | 29059m | 6.5m/s | -46.9°C | 0.0% | 0hPa | 0V | 00:00:00 | 00:00:00 | 00:00:00 | |
| LZ4TU-5 | 2026-09-06 00:33:23 | 43.07671 | 20.56432 | 318° | 22km/h | 29030m | 5.4m/s | -46.9°C | 0.0% | 0hPa | 0V | 00:00:00 | 00:00:00 | 00:00:00 | |
| LZ4TU-5 | 2026-09-06 00:31:38 | 43.07659 | 20.56525 | 158° | 26km/h | 28324m | 4.8m/s | -46.6°C | 0.0% | 0hPa | 0V | 00:00:00 | 00:00:00 | 00:00:00 | |
| LZ4TU-5 | 2026-09-06 00:31:33 | 43.07653 | 20.56539 | 333° | 20km/h | 28287m | 6.6m/s | -46.6°C | 0.0% | 0hPa | 0V | 00:00:00 | 00:00:00 | 00:00:00 | |
| LZ4TU-5 | 2026-09-06 00:29:44 | 43.07476 | 20.56680 | 18° | 18km/h | 27562m | 6.5m/s | -47.2°C | 0.0% | 0hPa | 0V | 00:00:00 | 00:00:00 | 00:00:00 | |
| LZ4TU-5 | 2026-09-06 00:29:39 | 43.07446 | 20.56690 | 308° | 38km/h | 27527m | 6.4m/s | -47.3°C | 0.0% | 0hPa | 0V | 00:00:00 | 00:00:00 | 00:00:00 | |
| LZ4TU-5 | 2026-09-06 00:28:04 | 43.07312 | 20.56933 | 257° | 9km/h | 26904m | 6.0m/s | -50.2°C | 0.0% | 0hPa | 0V | 00:00:00 | 00:00:00 | 00:00:00 | |
| LZ4TU-5 | 2026-09-06 00:27:59 | 43.07312 | 20.56933 | 36° | 5km/h | 26873m | 5.9m/s | -50.1°C | 0.0% | 0hPa | 0V | 00:00:00 | 00:00:00 | 00:00:00 | |
| LZ4TU-5 | 2026-09-06 00:26:25 | 43.07096 | 20.56926 | 68° | 22km/h | 26261m | 6.0m/s | -49.3°C | 0.0% | 0hPa | 0V | 00:00:00 | 00:00:00 | 00:00:00 | |
| LZ4TU-5 | 2026-09-06 00:26:20 | 43.07066 | 20.56907 | 338° | 24km/h | 26230m | 7.7m/s | -49.6°C | 0.0% | 0hPa | 0V | 00:00:00 | 00:00:00 | 00:00:00 | |
| LZ4TU-5 | 2026-09-06 00:24:45 | 43.06785 | 20.57148 | 274° | 7km/h | 25639m | 7.6m/s | -50.2°C | 0.0% | 0hPa | 0V | 00:00:00 | 00:00:00 | 00:00:00 | |
| LZ4TU-5 | 2026-09-06 00:24:40 | 43.06795 | 20.57160 | 212° | 29km/h | 25605m | 6.5m/s | -50.1°C | 0.0% | 0hPa | 0V | 00:00:00 | 00:00:00 | 00:00:00 | |
| LZ4TU-5 | 2026-09-06 00:23:13 | 43.07147 | 20.57083 | 65° | 7km/h | 25009m | 6.8m/s | -50.6°C | 0.0% | 0hPa | 0V | 00:00:00 | 00:00:00 | 00:00:00 | |
| LZ4TU-5 | 2026-09-06 00:23:08 | 43.07142 | 20.57082 | 43° | 11km/h | 24978m | 4.5m/s | -50.6°C | 0% | 0hPa | 0V | 00:00:00 | 00:00:00 | 00:00:00 | |
| LZ4TU-5 | 2026-09-06 00:21:30 | 43.06963 | 20.56835 | 335° | 20km/h | 24348m | 7.3m/s | -52.4°C | 0.0% | 0hPa | 0V | 00:00:00 | 00:00:00 | 00:00:00 | |
| LZ4TU-5 | 2026-09-06 00:21:26 | 43.06958 | 20.56844 | 122° | 9km/h | 24322m | 6.4m/s | -52.5°C | 0.0% | 0hPa | 0V | 00:00:00 | 00:00:00 | 00:00:00 | |
| LZ4TU-5 | 2026-09-06 00:19:43 | 43.06901 | 20.56650 | 316° | 15km/h | 23706m | 6.2m/s | -53.4°C | 0.0% | 0hPa | 0V | 00:00:00 | 00:00:00 | 00:00:00 | |
| LZ4TU-5 | 2026-09-06 00:19:38 | 43.06893 | 20.56642 | 68° | 22km/h | 23676m | 6.7m/s | -54.4°C | 0.0% | 0hPa | 0V | 00:00:00 | 00:00:00 | 00:00:00 | |
| LZ4TU-5 | 2026-09-06 00:17:58 | 43.06998 | 20.56183 | 59° | 13km/h | 23034m | 8.1m/s | -55.2°C | 0.0% | 0hPa | 0V | 00:00:00 | 00:00:00 | 00:00:00 | |
| LZ4TU-5 | 2026-09-06 00:17:53 | 43.06971 | 20.56160 | 49° | 29km/h | 23000m | 6.8m/s | -55.1°C | 0.0% | 0hPa | 0V | 00:00:00 | 00:00:00 | 00:00:00 | |
| LZ4TU-5 | 2026-09-06 00:16:11 | 43.06953 | 20.56076 | 141° | 22km/h | 22375m | 7.8m/s | -55.5°C | 0.0% | 0hPa | 0V | 00:00:00 | 00:00:00 | 00:00:00 | |
| LZ4TU-5 | 2026-09-06 00:16:06 | 43.06966 | 20.56057 | 119° | 4km/h | 22343m | 6.8m/s | -55.4°C | 0.0% | 0hPa | 0V | 00:00:00 | 00:00:00 | 00:00:00 | |
| LZ4TU-5 | 2026-09-06 00:14:17 | 43.06853 | 20.55649 | 179° | 18km/h | 21691m | 4.5m/s | -54.4°C | 0.0% | 0hPa | 0V | 00:00:00 | 00:00:00 | 00:00:00 | |
| LZ4TU-5 | 2026-09-06 00:14:12 | 43.06868 | 20.55650 | 301° | 5km/h | 21662m | 5.6m/s | -54.3°C | 0.0% | 0hPa | 0V | 00:00:00 | 00:00:00 | 00:00:00 | |
| LZ4TU-5 | 2026-09-06 00:12:33 | 43.07173 | 20.55213 | 109° | 22km/h | 21068m | 5.8m/s | -56.8°C | 0.0% | 0hPa | 0V | 00:00:00 | 00:00:00 | 00:00:00 | |
| LZ4TU-5 | 2026-09-06 00:12:28 | 43.07186 | 20.55192 | 97° | 24km/h | 21039m | 5.1m/s | -56.9°C | 0% | 0hPa | 0V | 00:00:00 | 00:00:00 | 00:00:00 | |
| LZ4TU-5 | 2026-09-06 00:10:56 | 43.07005 | 20.54466 | 79° | 4km/h | 20491m | 6.3m/s | -57.6°C | 0.0% | 0hPa | 0V | 00:00:00 | 00:00:00 | 00:00:00 | |
| LZ4TU-5 | 2026-09-06 00:10:52 | 43.07005 | 20.54448 | 97° | 29km/h | 20466m | 4.4m/s | -57.6°C | 0.0% | 0hPa | 0V | 00:00:00 | 00:00:00 | 00:00:00 | |
| LZ4TU-5 | 2026-09-06 00:10:46 | 43.07007 | 20.54400 | 118° | 18km/h | 20428m | 5.7m/s | -57.9°C | 0.0% | 0hPa | 0V | 00:00:00 | 00:00:00 | 00:00:00 | |
| LZ4TU-5 | 2026-09-06 00:08:40 | 43.06899 | 20.53302 | 64° | 40km/h | 19675m | 6.3m/s | -58.9°C | 0.5% | 0hPa | 0V | 00:00:00 | 00:00:00 | 00:00:00 | |
| LZ4TU-5 | 2026-09-06 00:08:35 | 43.06881 | 20.53240 | 72° | 27km/h | 19645m | 6.8m/s | -58.8°C | 0.5% | 0hPa | 0V | 00:00:00 | 00:00:00 | 00:00:00 | |
| LZ4TU-5 | 2026-09-06 00:06:55 | 43.06990 | 20.52158 | 93° | 55km/h | 19039m | 5.4m/s | -58.4°C | 0.9% | 0hPa | 0V | 00:00:00 | 00:00:00 | 00:00:00 | |
| LZ4TU-5 | 2026-09-06 00:06:50 | 43.06997 | 20.52097 | 100° | 37km/h | 19013m | 5.2m/s | -58.3°C | 0.9% | 0hPa | 0V | 00:00:00 | 00:00:00 | 00:00:00 | |
| LZ4TU-5 | 2026-09-06 00:05:11 | 43.06870 | 20.51223 | 74° | 27km/h | 18458m | 5.9m/s | -58.8°C | 1.5% | 0hPa | 0V | 00:00:00 | 00:00:00 | 00:00:00 | |
| LZ4TU-5 | 2026-09-06 00:05:07 | 43.06875 | 20.51163 | 103° | 24km/h | 18432m | 6.5m/s | -58.7°C | 1.5% | 0hPa | 0V | 00:00:00 | 00:00:00 | 00:00:00 | |
| LZ4TU-5 | 2026-09-06 00:03:27 | 43.07373 | 20.49836 | 121° | 60km/h | 17870m | 4.8m/s | -59.2°C | 75.2% | 0hPa | 0V | 00:00:00 | 00:00:00 | 00:00:00 | |
| LZ4TU-5 | 2026-09-06 00:03:25 | 43.07406 | 20.49757 | 121° | 69km/h | 17849m | 4.3m/s | -59.2°C | 2.9% | 0hPa | 0V | 00:00:00 | 00:00:00 | 00:00:00 | |
| LZ4TU-5 | 2026-09-06 00:01:53 | 43.07637 | 20.47992 | 109° | 53km/h | 17336m | 5.4m/s | -60.2°C | 4.5% | 0hPa | 0V | 00:00:00 | 00:00:00 | 00:00:00 | |
| LZ4TU-5 | 2026-09-06 00:01:47 | 43.07656 | 20.47922 | 106° | 53km/h | 17314m | 6.5m/s | -60.2°C | 4.6% | 0hPa | 0V | 00:00:00 | 00:00:00 | 00:00:00 | |
| LZ4TU-5 | 2026-09-05 23:59:58 | 43.08124 | 20.46031 | 104° | 57km/h | 16740m | 4.7m/s | -62.4°C | 6.3% | 0hPa | 0V | 00:00:00 | 00:00:00 | 00:00:00 | |
| LZ4TU-5 | 2026-09-05 23:59:54 | 43.08139 | 20.45952 | 104° | 66km/h | 16719m | 5.1m/s | -62.2°C | 6.4% | 0hPa | 0V | 00:00:00 | 00:00:00 | 00:00:00 | |
| LZ4TU-5 | 2026-09-05 23:59:50 | 43.08156 | 20.45843 | 105° | 68km/h | 16693m | 4.3m/s | -62.0°C | 6.4% | 0hPa | 0V | 00:00:00 | 00:00:00 | 00:00:00 | |
| LZ4TU-5 | 2026-09-05 23:58:03 | 43.08390 | 20.43160 | 85° | 75km/h | 16126m | 4.4m/s | -61.1°C | 8.0% | 0hPa | 0V | 00:00:00 | 00:00:00 | 00:00:00 | |
| LZ4TU-5 | 2026-09-05 23:57:59 | 43.08388 | 20.43053 | 98° | 75km/h | 16104m | 6.3m/s | -61.1°C | 8.0% | 0hPa | 0V | 00:00:00 | 00:00:00 | 00:00:00 | |
| LZ4TU-5 | 2026-09-05 23:56:20 | 43.08556 | 20.40757 | 109° | 78km/h | 15547m | 8.2m/s | -62.4°C | 11.2% | 0hPa | 0V | 00:00:00 | 00:00:00 | 00:00:00 | |
| LZ4TU-5 | 2026-09-05 23:56:15 | 43.08582 | 20.40615 | 100° | 77km/h | 15518m | 5.9m/s | -62.3°C | 11.5% | 0hPa | 0V | 00:00:00 | 00:00:00 | 00:00:00 | |
| LZ4TU-5 | 2026-09-05 23:54:33 | 43.08985 | 20.38128 | 105° | 78km/h | 14956m | 4.6m/s | -61.7°C | 19.1% | 0hPa | 0V | 00:00:00 | 00:00:00 | 00:00:00 | |
| LZ4TU-5 | 2026-09-05 23:54:27 | 43.09002 | 20.37981 | 100° | 88km/h | 14933m | 4.8m/s | -61.6°C | 19.8% | 0hPa | 0V | 00:00:00 | 00:00:00 | 00:00:00 | |
| LZ4TU-5 | 2026-09-05 23:52:47 | 43.09444 | 20.35181 | 102° | 71km/h | 14355m | 10.9m/s | -66.2°C | 33.4% | 0hPa | 0V | 00:00:00 | 00:00:00 | 00:00:00 | |
| LZ4TU-5 | 2026-09-05 23:52:43 | 43.09478 | 20.35052 | 119° | 91km/h | 14318m | 7.0m/s | -67.1°C | 33.6% | 0hPa | 0V | 00:00:00 | 00:00:00 | 00:00:00 | |
| LZ4TU-5 | 2026-09-05 23:50:57 | 43.10092 | 20.32457 | 120° | 73km/h | 13652m | 8.5m/s | -64.4°C | 27.3% | 0hPa | 0V | 00:00:00 | 00:00:00 | 00:00:00 | |
| LZ4TU-5 | 2026-09-05 23:50:52 | 43.10135 | 20.32368 | 120° | 60km/h | 13610m | 7.8m/s | -64.0°C | 27.0% | 0hPa | 0V | 00:00:00 | 00:00:00 | 00:00:00 | |
| LZ4TU-5 | 2026-09-05 23:49:12 | 43.10971 | 20.30460 | 137° | 68km/h | 12884m | 7.0m/s | -58.8°C | 22.1% | 0hPa | 0V | 00:00:00 | 00:00:00 | 00:00:00 | |
| LZ4TU-5 | 2026-09-05 23:49:07 | 43.11046 | 20.30372 | 135° | 93km/h | 12855m | 6.5m/s | -58.6°C | 0% | 0hPa | 0V | 00:00:00 | 00:00:00 | 00:00:00 | |
| LZ4TU-5 | 2026-09-05 23:47:20 | 43.12806 | 20.28077 | 134° | 95km/h | 12201m | 4.4m/s | -55.7°C | 24.7% | 0hPa | 0V | 00:00:00 | 00:00:00 | 00:00:00 | |
| LZ4TU-5 | 2026-09-05 23:47:15 | 43.12895 | 20.27984 | 145° | 88km/h | 12173m | 6.5m/s | -55.4°C | 24.7% | 0hPa | 0V | 00:00:00 | 00:00:00 | 00:00:00 | |
| LZ4TU-5 | 2026-09-05 23:45:44 | 43.14314 | 20.25898 | 140° | 99km/h | 11617m | 4.9m/s | -52.3°C | 27.1% | 0hPa | 0V | 00:00:00 | 00:00:00 | 00:00:00 | |
| LZ4TU-5 | 2026-09-05 23:45:40 | 43.14388 | 20.25792 | 129° | 100km/h | 11594m | 4.7m/s | -52.2°C | 27.1% | 0hPa | 0V | 00:00:00 | 00:00:00 | 00:00:00 | |
| LZ4TU-5 | 2026-09-05 23:44:12 | 43.15574 | 20.23874 | 135° | 75km/h | 11058m | 5.4m/s | -48.0°C | 27.5% | 0hPa | 0V | 00:00:00 | 00:00:00 | 00:00:00 | |
| LZ4TU-5 | 2026-09-05 23:44:08 | 43.15613 | 20.23784 | 113° | 82km/h | 11034m | 5.6m/s | -47.8°C | 27.9% | 0hPa | 0V | 00:00:00 | 00:00:00 | 00:00:00 | |
| LZ4TU-5 | 2026-09-05 23:42:44 | 43.16716 | 20.22034 | 136° | 88km/h | 10533m | 5.2m/s | -43.7°C | 32.1% | 0hPa | 0V | 00:00:00 | 00:00:00 | 00:00:00 | |
| LZ4TU-5 | 2026-09-05 23:42:38 | 43.16780 | 20.21938 | 132° | 77km/h | 10504m | 2.9m/s | -43.4°C | 32.1% | 0hPa | 0V | 00:00:00 | 00:00:00 | 00:00:00 | |
| LZ4TU-5 | 2026-09-05 23:41:12 | 43.17953 | 20.20280 | 127° | 82km/h | 10028m | 4.5m/s | -39.1°C | 25.4% | 0hPa | 0V | 00:00:00 | 00:00:00 | 00:00:00 | |
| LZ4TU-5 | 2026-09-05 23:41:06 | 43.18018 | 20.20178 | 145° | 75km/h | 9999m | 4.3m/s | -38.9°C | 24.9% | 0hPa | 0V | 00:00:00 | 00:00:00 | 00:00:00 | |
| LZ4TU-5 | 2026-09-05 23:39:45 | 43.18991 | 20.18674 | 117° | 77km/h | 9529m | 5.6m/s | -34.5°C | 20.1% | 0hPa | 0V | 00:00:00 | 00:00:00 | 00:00:00 | |
| LZ4TU-5 | 2026-09-05 23:39:41 | 43.19027 | 20.18606 | 142° | 62km/h | 9511m | 5.2m/s | -34.4°C | 20.2% | 0hPa | 0V | 00:00:00 | 00:00:00 | 00:00:00 | |
| LZ4TU-5 | 2026-09-05 23:38:23 | 43.19869 | 20.17219 | 150° | 78km/h | 9063m | 6.7m/s | -30.3°C | 12.9% | 0hPa | 0V | 00:00:00 | 00:00:00 | 00:00:00 | |
| LZ4TU-5 | 2026-09-05 23:38:18 | 43.19932 | 20.17141 | 109° | 60km/h | 9043m | 6.3m/s | -30.1°C | 12.7% | 0hPa | 0V | 00:00:00 | 00:00:00 | 00:00:00 | |
| LZ4TU-5 | 2026-09-05 23:36:58 | 43.20675 | 20.15609 | 119° | 91km/h | 8596m | 6.0m/s | -26.4°C | 14.1% | 0hPa | 0V | 00:00:00 | 00:00:00 | 00:00:00 | |
| LZ4TU-5 | 2026-09-05 23:36:53 | 43.20725 | 20.15500 | 127° | 47km/h | 8565m | 6.9m/s | -26.1°C | 14.1% | 0hPa | 0V | 00:00:00 | 00:00:00 | 00:00:00 | |
| LZ4TU-5 | 2026-09-05 23:36:48 | 43.20747 | 20.15416 | 116° | 78km/h | 8542m | 7.6m/s | -25.9°C | 14.3% | 0hPa | 0V | 00:00:00 | 00:00:00 | 00:00:00 | |
| LZ4TU-5 | 2026-09-05 23:36:43 | 43.20813 | 20.15307 | 133° | 64km/h | 8508m | 5.4m/s | -25.7°C | 14.7% | 0hPa | 0V | 00:00:00 | 00:00:00 | 00:00:00 |